sensor_id;sensor_type;location;lat;lon;timestamp;pressure;altitude;pressure_sealevel;temperature;humidity
8641;BME280;4358;42.100;25.222;2023-09-19T00:00:07;100496.44;;;16.31;100.00
8641;BME280;4358;42.100;25.222;2023-09-19T00:02:34;100493.69;;;15.88;100.00
8641;BME280;4358;42.100;25.222;2023-09-19T00:05:02;100494.53;;;15.77;100.00
8641;BME280;4358;42.100;25.222;2023-09-19T00:07:29;100495.16;;;15.70;100.00
8641;BME280;4358;42.100;25.222;2023-09-19T00:09:56;100485.53;;;15.78;100.00
8641;BME280;4358;42.100;25.222;2023-09-19T00:12:23;100498.16;;;15.65;100.00
8641;BME280;4358;42.100;25.222;2023-09-19T00:14:50;100493.81;;;15.64;100.00
8641;BME280;4358;42.100;25.222;2023-09-19T00:17:19;100495.25;;;15.57;100.00
8641;BME280;4358;42.100;25.222;2023-09-19T00:19:46;100481.38;;;15.63;100.00
8641;BME280;4358;42.100;25.222;2023-09-19T00:22:17;100474.34;;;15.73;100.00
8641;BME280;4358;42.100;25.222;2023-09-19T00:24:44;100479.31;;;15.66;100.00
8641;BME280;4358;42.100;25.222;2023-09-19T00:27:11;100482.38;;;15.73;100.00
8641;BME280;4358;42.100;25.222;2023-09-19T00:29:38;100479.22;;;15.79;100.00
8641;BME280;4358;42.100;25.222;2023-09-19T00:32:07;100455.84;;;15.81;100.00
8641;BME280;4358;42.100;25.222;2023-09-19T00:34:35;100470.44;;;15.99;100.00
8641;BME280;4358;42.100;25.222;2023-09-19T00:37:02;100460.31;;;16.14;100.00
8641;BME280;4358;42.100;25.222;2023-09-19T00:39:29;100466.97;;;16.31;100.00
8641;BME280;4358;42.100;25.222;2023-09-19T00:41:57;100459.88;;;16.41;100.00
8641;BME280;4358;42.100;25.222;2023-09-19T00:44:24;100461.09;;;16.48;100.00
8641;BME280;4358;42.100;25.222;2023-09-19T00:46:52;100458.38;;;16.59;100.00
8641;BME280;4358;42.100;25.222;2023-09-19T00:49:19;100454.97;;;16.57;100.00
8641;BME280;4358;42.100;25.222;2023-09-19T00:51:49;100464.72;;;16.58;100.00
8641;BME280;4358;42.100;25.222;2023-09-19T00:54:18;100462.19;;;16.45;100.00
8641;BME280;4358;42.100;25.222;2023-09-19T00:56:46;100467.19;;;16.39;100.00
8641;BME280;4358;42.100;25.222;2023-09-19T00:59:14;100463.56;;;16.18;100.00
8641;BME280;4358;42.100;25.222;2023-09-19T01:01:41;100471.00;;;16.14;100.00
8641;BME280;4358;42.100;25.222;2023-09-19T01:04:11;100464.13;;;15.89;100.00
8641;BME280;4358;42.100;25.222;2023-09-19T01:06:39;100473.22;;;15.98;100.00
8641;BME280;4358;42.100;25.222;2023-09-19T01:09:07;100469.94;;;16.05;100.00
8641;BME280;4358;42.100;25.222;2023-09-19T01:11:38;100467.75;;;15.99;100.00
8641;BME280;4358;42.100;25.222;2023-09-19T01:14:17;100461.66;;;16.08;100.00
8641;BME280;4358;42.100;25.222;2023-09-19T01:16:52;100459.53;;;16.23;100.00
8641;BME280;4358;42.100;25.222;2023-09-19T01:19:53;100461.72;;;16.29;100.00
8641;BME280;4358;42.100;25.222;2023-09-19T01:22:33;100459.69;;;16.22;100.00
8641;BME280;4358;42.100;25.222;2023-09-19T01:25:42;100462.22;;;16.23;100.00
8641;BME280;4358;42.100;25.222;2023-09-19T01:28:30;100465.91;;;16.22;100.00
8641;BME280;4358;42.100;25.222;2023-09-19T01:31:02;100461.03;;;16.16;100.00
8641;BME280;4358;42.100;25.222;2023-09-19T01:33:54;100462.03;;;15.82;100.00
8641;BME280;4358;42.100;25.222;2023-09-19T01:36:28;100463.25;;;15.66;100.00
8641;BME280;4358;42.100;25.222;2023-09-19T01:38:57;100459.97;;;15.52;100.00
8641;BME280;4358;42.100;25.222;2023-09-19T01:41:35;100463.81;;;15.37;100.00
8641;BME280;4358;42.100;25.222;2023-09-19T01:44:07;100452.63;;;15.32;100.00
8641;BME280;4358;42.100;25.222;2023-09-19T01:46:39;100448.13;;;15.32;100.00
8641;BME280;4358;42.100;25.222;2023-09-19T01:49:16;100452.59;;;15.20;100.00
8641;BME280;4358;42.100;25.222;2023-09-19T01:51:52;100456.34;;;15.18;100.00
8641;BME280;4358;42.100;25.222;2023-09-19T01:54:26;100450.78;;;15.21;100.00
8641;BME280;4358;42.100;25.222;2023-09-19T01:56:59;100442.91;;;15.31;100.00
8641;BME280;4358;42.100;25.222;2023-09-19T01:59:35;100454.81;;;15.26;100.00
8641;BME280;4358;42.100;25.222;2023-09-19T02:02:06;100451.00;;;15.18;100.00
8641;BME280;4358;42.100;25.222;2023-09-19T02:04:34;100448.00;;;15.22;100.00
8641;BME280;4358;42.100;25.222;2023-09-19T02:07:02;100451.09;;;14.94;100.00
8641;BME280;4358;42.100;25.222;2023-09-19T02:09:31;100439.91;;;14.89;100.00
8641;BME280;4358;42.100;25.222;2023-09-19T02:11:59;100447.72;;;14.68;100.00
8641;BME280;4358;42.100;25.222;2023-09-19T02:14:26;100449.28;;;14.60;100.00
8641;BME280;4358;42.100;25.222;2023-09-19T02:16:55;100438.09;;;14.66;100.00
8641;BME280;4358;42.100;25.222;2023-09-19T02:19:23;100448.22;;;14.73;100.00
8641;BME280;4358;42.100;25.222;2023-09-19T02:21:50;100439.75;;;14.56;100.00
8641;BME280;4358;42.100;25.222;2023-09-19T02:24:17;100443.94;;;14.60;100.00
8641;BME280;4358;42.100;25.222;2023-09-19T02:26:44;100445.56;;;14.73;100.00
8641;BME280;4358;42.100;25.222;2023-09-19T02:29:11;100444.16;;;14.57;100.00
8641;BME280;4358;42.100;25.222;2023-09-19T02:31:38;100440.50;;;14.58;100.00
8641;BME280;4358;42.100;25.222;2023-09-19T02:34:08;100444.69;;;14.73;100.00
8641;BME280;4358;42.100;25.222;2023-09-19T02:36:36;100440.31;;;14.72;100.00
8641;BME280;4358;42.100;25.222;2023-09-19T02:39:03;100434.25;;;14.70;100.00
8641;BME280;4358;42.100;25.222;2023-09-19T02:41:33;100437.88;;;14.69;100.00
8641;BME280;4358;42.100;25.222;2023-09-19T02:44:00;100429.97;;;14.67;100.00
8641;BME280;4358;42.100;25.222;2023-09-19T02:46:27;100444.94;;;14.70;100.00
8641;BME280;4358;42.100;25.222;2023-09-19T02:48:54;100434.25;;;14.70;100.00
8641;BME280;4358;42.100;25.222;2023-09-19T02:51:21;100433.25;;;14.71;100.00
8641;BME280;4358;42.100;25.222;2023-09-19T02:53:50;100422.47;;;14.72;100.00
8641;BME280;4358;42.100;25.222;2023-09-19T02:56:18;100432.75;;;14.66;100.00
8641;BME280;4358;42.100;25.222;2023-09-19T02:58:44;100426.75;;;14.75;100.00
8641;BME280;4358;42.100;25.222;2023-09-19T03:01:11;100425.28;;;14.82;100.00
8641;BME280;4358;42.100;25.222;2023-09-19T03:03:38;100425.31;;;14.93;100.00
8641;BME280;4358;42.100;25.222;2023-09-19T03:06:06;100427.88;;;14.95;100.00
8641;BME280;4358;42.100;25.222;2023-09-19T03:08:34;100422.94;;;15.01;100.00
8641;BME280;4358;42.100;25.222;2023-09-19T03:11:04;100424.84;;;14.99;100.00
8641;BME280;4358;42.100;25.222;2023-09-19T03:13:33;100425.09;;;14.96;100.00
8641;BME280;4358;42.100;25.222;2023-09-19T03:16:01;100426.28;;;14.92;100.00
8641;BME280;4358;42.100;25.222;2023-09-19T03:18:31;100421.94;;;14.91;100.00
8641;BME280;4358;42.100;25.222;2023-09-19T03:20:58;100433.09;;;14.85;100.00
8641;BME280;4358;42.100;25.222;2023-09-19T03:23:26;100430.59;;;14.71;100.00
8641;BME280;4358;42.100;25.222;2023-09-19T03:25:53;100428.28;;;14.66;100.00
8641;BME280;4358;42.100;25.222;2023-09-19T03:28:22;100430.72;;;14.46;100.00
8641;BME280;4358;42.100;25.222;2023-09-19T03:30:58;100435.97;;;14.47;100.00
8641;BME280;4358;42.100;25.222;2023-09-19T03:33:25;100436.94;;;14.46;100.00
8641;BME280;4358;42.100;25.222;2023-09-19T03:35:52;100442.97;;;14.37;100.00
8641;BME280;4358;42.100;25.222;2023-09-19T03:38:20;100438.47;;;14.37;100.00
8641;BME280;4358;42.100;25.222;2023-09-19T03:40:47;100429.09;;;14.19;100.00
8641;BME280;4358;42.100;25.222;2023-09-19T03:43:14;100431.22;;;14.27;100.00
8641;BME280;4358;42.100;25.222;2023-09-19T03:45:42;100426.94;;;14.24;100.00
8641;BME280;4358;42.100;25.222;2023-09-19T03:48:09;100432.19;;;14.38;100.00
8641;BME280;4358;42.100;25.222;2023-09-19T03:50:36;100441.22;;;14.49;100.00
8641;BME280;4358;42.100;25.222;2023-09-19T03:53:03;100438.66;;;14.47;100.00
8641;BME280;4358;42.100;25.222;2023-09-19T03:55:30;100441.41;;;14.46;100.00
8641;BME280;4358;42.100;25.222;2023-09-19T03:57:57;100448.13;;;14.51;100.00
8641;BME280;4358;42.100;25.222;2023-09-19T04:00:24;100445.41;;;14.40;100.00
8641;BME280;4358;42.100;25.222;2023-09-19T04:02:53;100454.25;;;14.40;100.00
8641;BME280;4358;42.100;25.222;2023-09-19T04:05:21;100442.19;;;14.35;100.00
8641;BME280;4358;42.100;25.222;2023-09-19T04:07:48;100444.91;;;14.22;100.00
8641;BME280;4358;42.100;25.222;2023-09-19T04:10:15;100444.09;;;14.09;100.00
8641;BME280;4358;42.100;25.222;2023-09-19T04:12:50;100452.41;;;14.17;100.00
8641;BME280;4358;42.100;25.222;2023-09-19T04:15:18;100454.34;;;14.15;100.00
8641;BME280;4358;42.100;25.222;2023-09-19T04:17:45;100458.44;;;14.32;100.00
8641;BME280;4358;42.100;25.222;2023-09-19T04:20:13;100461.97;;;14.32;100.00
8641;BME280;4358;42.100;25.222;2023-09-19T04:22:41;100457.06;;;14.39;100.00
8641;BME280;4358;42.100;25.222;2023-09-19T04:25:08;100463.03;;;14.43;100.00
8641;BME280;4358;42.100;25.222;2023-09-19T04:27:35;100467.66;;;14.52;100.00
8641;BME280;4358;42.100;25.222;2023-09-19T04:30:02;100466.25;;;14.59;100.00
8641;BME280;4358;42.100;25.222;2023-09-19T04:32:35;100472.13;;;14.64;100.00
8641;BME280;4358;42.100;25.222;2023-09-19T04:35:04;100470.06;;;14.67;100.00
8641;BME280;4358;42.100;25.222;2023-09-19T04:37:37;100478.94;;;14.68;100.00
8641;BME280;4358;42.100;25.222;2023-09-19T04:40:06;100469.78;;;14.59;100.00
8641;BME280;4358;42.100;25.222;2023-09-19T04:42:38;100475.25;;;14.58;100.00
8641;BME280;4358;42.100;25.222;2023-09-19T04:45:06;100473.81;;;14.65;100.00
8641;BME280;4358;42.100;25.222;2023-09-19T04:47:35;100466.41;;;14.68;100.00
8641;BME280;4358;42.100;25.222;2023-09-19T04:50:06;100468.28;;;14.79;100.00
8641;BME280;4358;42.100;25.222;2023-09-19T04:52:40;100466.53;;;14.67;100.00
8641;BME280;4358;42.100;25.222;2023-09-19T04:55:10;100469.78;;;14.59;100.00
8641;BME280;4358;42.100;25.222;2023-09-19T04:57:43;100466.53;;;14.67;100.00
8641;BME280;4358;42.100;25.222;2023-09-19T05:00:12;100434.66;;;14.53;100.00
8641;BME280;4358;42.100;25.222;2023-09-19T05:02:40;100461.81;;;14.70;100.00
8641;BME280;4358;42.100;25.222;2023-09-19T05:05:07;100463.44;;;14.84;100.00
8641;BME280;4358;42.100;25.222;2023-09-19T05:07:35;100474.53;;;14.91;100.00
8641;BME280;4358;42.100;25.222;2023-09-19T05:10:04;100468.28;;;14.79;100.00
8641;BME280;4358;42.100;25.222;2023-09-19T05:12:33;100471.16;;;14.76;100.00
8641;BME280;4358;42.100;25.222;2023-09-19T05:15:00;100475.50;;;14.90;100.00
8641;BME280;4358;42.100;25.222;2023-09-19T05:17:28;100478.84;;;15.15;100.00
8641;BME280;4358;42.100;25.222;2023-09-19T05:19:55;100470.13;;;15.36;100.00
8641;BME280;4358;42.100;25.222;2023-09-19T05:22:22;100481.97;;;15.55;100.00
8641;BME280;4358;42.100;25.222;2023-09-19T05:24:50;100466.41;;;15.60;100.00
8641;BME280;4358;42.100;25.222;2023-09-19T05:27:19;100461.19;;;15.81;100.00
8641;BME280;4358;42.100;25.222;2023-09-19T05:29:47;100471.88;;;16.03;100.00
8641;BME280;4358;42.100;25.222;2023-09-19T05:32:16;100478.69;;;16.19;100.00
8641;BME280;4358;42.100;25.222;2023-09-19T05:34:43;100478.38;;;16.44;100.00
8641;BME280;4358;42.100;25.222;2023-09-19T05:37:10;100477.38;;;16.67;100.00
8641;BME280;4358;42.100;25.222;2023-09-19T05:39:37;100465.69;;;16.89;100.00
8641;BME280;4358;42.100;25.222;2023-09-19T05:42:04;100475.19;;;17.14;100.00
8641;BME280;4358;42.100;25.222;2023-09-19T05:44:32;100476.31;;;17.32;100.00
8641;BME280;4358;42.100;25.222;2023-09-19T05:46:59;100471.00;;;17.42;100.00
8641;BME280;4358;42.100;25.222;2023-09-19T05:49:26;100471.28;;;17.48;100.00
8641;BME280;4358;42.100;25.222;2023-09-19T05:51:53;100475.59;;;17.30;100.00
8641;BME280;4358;42.100;25.222;2023-09-19T05:54:24;100466.03;;;17.37;100.00
8641;BME280;4358;42.100;25.222;2023-09-19T05:56:51;100466.94;;;17.47;100.00
8641;BME280;4358;42.100;25.222;2023-09-19T05:59:18;100458.56;;;17.61;100.00
8641;BME280;4358;42.100;25.222;2023-09-19T06:01:47;100465.13;;;17.78;100.00
8641;BME280;4358;42.100;25.222;2023-09-19T06:04:13;100472.06;;;17.81;100.00
8641;BME280;4358;42.100;25.222;2023-09-19T06:06:40;100470.34;;;17.79;100.00
8641;BME280;4358;42.100;25.222;2023-09-19T06:09:08;100471.44;;;17.98;100.00
8641;BME280;4358;42.100;25.222;2023-09-19T06:11:35;100466.50;;;18.03;100.00
8641;BME280;4358;42.100;25.222;2023-09-19T06:14:02;100471.75;;;18.14;100.00
8641;BME280;4358;42.100;25.222;2023-09-19T06:16:29;100469.53;;;18.29;100.00
8641;BME280;4358;42.100;25.222;2023-09-19T06:18:58;100471.25;;;18.39;100.00
8641;BME280;4358;42.100;25.222;2023-09-19T06:21:26;100467.72;;;18.48;100.00
8641;BME280;4358;42.100;25.222;2023-09-19T06:23:53;100464.81;;;18.71;100.00
8641;BME280;4358;42.100;25.222;2023-09-19T06:26:20;100454.91;;;18.90;100.00
8641;BME280;4358;42.100;25.222;2023-09-19T06:28:47;100461.94;;;19.11;100.00
8641;BME280;4358;42.100;25.222;2023-09-19T06:31:14;100470.72;;;19.22;100.00
8641;BME280;4358;42.100;25.222;2023-09-19T06:33:41;100472.44;;;19.23;100.00
8641;BME280;4358;42.100;25.222;2023-09-19T06:36:09;100469.03;;;19.31;100.00
8641;BME280;4358;42.100;25.222;2023-09-19T06:38:36;100474.53;;;19.49;100.00
8641;BME280;4358;42.100;25.222;2023-09-19T06:41:04;100466.00;;;19.53;100.00
8641;BME280;4358;42.100;25.222;2023-09-19T06:43:32;100466.69;;;19.65;100.00
8641;BME280;4358;42.100;25.222;2023-09-19T06:46:00;100467.81;;;19.72;100.00
8641;BME280;4358;42.100;25.222;2023-09-19T06:48:27;100462.00;;;19.94;100.00
8641;BME280;4358;42.100;25.222;2023-09-19T06:50:55;100472.16;;;20.10;100.00
8641;BME280;4358;42.100;25.222;2023-09-19T06:53:25;100464.72;;;20.21;100.00
8641;BME280;4358;42.100;25.222;2023-09-19T06:55:52;100469.97;;;20.23;100.00
8641;BME280;4358;42.100;25.222;2023-09-19T06:58:18;100455.31;;;20.25;100.00
8641;BME280;4358;42.100;25.222;2023-09-19T07:00:46;100457.44;;;20.32;100.00
8641;BME280;4358;42.100;25.222;2023-09-19T07:03:13;100464.84;;;20.47;100.00
8641;BME280;4358;42.100;25.222;2023-09-19T07:05:41;100460.81;;;20.61;100.00
8641;BME280;4358;42.100;25.222;2023-09-19T07:08:09;100453.41;;;20.63;100.00
8641;BME280;4358;42.100;25.222;2023-09-19T07:10:39;100446.00;;;20.83;100.00
8641;BME280;4358;42.100;25.222;2023-09-19T07:13:09;100458.69;;;21.08;100.00
8641;BME280;4358;42.100;25.222;2023-09-19T07:15:37;100467.59;;;21.18;100.00
8641;BME280;4358;42.100;25.222;2023-09-19T07:18:12;100448.81;;;21.34;100.00
8641;BME280;4358;42.100;25.222;2023-09-19T07:20:40;100449.00;;;21.41;100.00
8641;BME280;4358;42.100;25.222;2023-09-19T07:23:14;100462.69;;;21.39;100.00
8641;BME280;4358;42.100;25.222;2023-09-19T07:25:44;100466.91;;;21.42;100.00
8641;BME280;4358;42.100;25.222;2023-09-19T07:28:12;100461.50;;;21.42;100.00
8641;BME280;4358;42.100;25.222;2023-09-19T07:30:39;100459.91;;;21.57;100.00
8641;BME280;4358;42.100;25.222;2023-09-19T07:33:07;100447.00;;;21.43;100.00
8641;BME280;4358;42.100;25.222;2023-09-19T07:35:37;100443.41;;;21.60;100.00
8641;BME280;4358;42.100;25.222;2023-09-19T07:38:06;100436.38;;;21.75;100.00
8641;BME280;4358;42.100;25.222;2023-09-19T07:40:33;100441.28;;;21.80;100.00
8641;BME280;4358;42.100;25.222;2023-09-19T07:43:01;100436.25;;;21.85;100.00
8641;BME280;4358;42.100;25.222;2023-09-19T07:45:30;100433.28;;;21.96;100.00
8641;BME280;4358;42.100;25.222;2023-09-19T07:47:57;100433.66;;;22.09;100.00
8641;BME280;4358;42.100;25.222;2023-09-19T07:50:25;100426.63;;;22.24;100.00
8641;BME280;4358;42.100;25.222;2023-09-19T07:52:53;100427.34;;;22.34;100.00
8641;BME280;4358;42.100;25.222;2023-09-19T07:55:20;100424.44;;;22.28;100.00
8641;BME280;4358;42.100;25.222;2023-09-19T07:57:49;100420.94;;;22.44;100.00
8641;BME280;4358;42.100;25.222;2023-09-19T08:00:17;100418.06;;;22.45;100.00
8641;BME280;4358;42.100;25.222;2023-09-19T08:02:45;100419.47;;;22.73;100.00
8641;BME280;4358;42.100;25.222;2023-09-19T08:05:13;100413.03;;;22.83;100.00
8641;BME280;4358;42.100;25.222;2023-09-19T08:07:43;100406.13;;;22.96;100.00
8641;BME280;4358;42.100;25.222;2023-09-19T08:10:14;100384.78;;;23.09;100.00
8641;BME280;4358;42.100;25.222;2023-09-19T08:12:42;100415.03;;;23.53;100.00
8641;BME280;4358;42.100;25.222;2023-09-19T08:15:12;100420.03;;;23.73;100.00
8641;BME280;4358;42.100;25.222;2023-09-19T08:17:40;100419.28;;;23.87;96.74
8641;BME280;4358;42.100;25.222;2023-09-19T08:20:08;100415.94;;;23.85;96.52
8641;BME280;4358;42.100;25.222;2023-09-19T08:22:43;100399.41;;;23.63;98.17
8641;BME280;4358;42.100;25.222;2023-09-19T08:25:13;100407.78;;;23.85;96.92
8641;BME280;4358;42.100;25.222;2023-09-19T08:27:41;100405.88;;;24.01;92.93
8641;BME280;4358;42.100;25.222;2023-09-19T08:30:10;100408.63;;;24.24;89.09
8641;BME280;4358;42.100;25.222;2023-09-19T08:32:37;100376.75;;;24.26;86.27
8641;BME280;4358;42.100;25.222;2023-09-19T08:35:06;100391.91;;;24.66;85.96
8641;BME280;4358;42.100;25.222;2023-09-19T08:37:34;100380.88;;;24.91;83.81
8641;BME280;4358;42.100;25.222;2023-09-19T08:40:01;100373.22;;;25.09;82.59
8641;BME280;4358;42.100;25.222;2023-09-19T08:42:28;100373.91;;;25.11;81.98
8641;BME280;4358;42.100;25.222;2023-09-19T08:44:55;100356.63;;;24.89;82.38
8641;BME280;4358;42.100;25.222;2023-09-19T08:47:30;100346.50;;;24.98;82.06
8641;BME280;4358;42.100;25.222;2023-09-19T08:50:04;100346.75;;;25.11;80.34
8641;BME280;4358;42.100;25.222;2023-09-19T08:52:41;100344.47;;;25.29;79.13
8641;BME280;4358;42.100;25.222;2023-09-19T08:55:12;100346.63;;;25.33;77.46
8641;BME280;4358;42.100;25.222;2023-09-19T08:57:46;100338.56;;;25.55;75.72
8641;BME280;4358;42.100;25.222;2023-09-19T09:00:16;100340.16;;;25.49;71.83
8641;BME280;4358;42.100;25.222;2023-09-19T09:02:46;100327.53;;;25.42;72.63
8641;BME280;4358;42.100;25.222;2023-09-19T09:05:15;100317.91;;;25.68;73.58
8641;BME280;4358;42.100;25.222;2023-09-19T09:07:49;100317.81;;;25.98;73.16
8641;BME280;4358;42.100;25.222;2023-09-19T09:10:17;100318.97;;;26.25;72.46
8641;BME280;4358;42.100;25.222;2023-09-19T09:12:48;100317.81;;;26.34;73.15
8641;BME280;4358;42.100;25.222;2023-09-19T09:15:17;100309.63;;;26.55;70.59
8641;BME280;4358;42.100;25.222;2023-09-19T09:17:47;100298.75;;;26.55;69.30
8641;BME280;4358;42.100;25.222;2023-09-19T09:20:16;100295.66;;;26.58;69.88
8641;BME280;4358;42.100;25.222;2023-09-19T09:22:52;100295.97;;;26.76;70.00
8641;BME280;4358;42.100;25.222;2023-09-19T09:25:20;100296.16;;;26.96;69.17
8641;BME280;4358;42.100;25.222;2023-09-19T09:27:58;100299.50;;;27.26;67.80
8641;BME280;4358;42.100;25.222;2023-09-19T09:30:33;100305.13;;;27.52;66.26
8641;BME280;4358;42.100;25.222;2023-09-19T09:33:11;100290.66;;;27.58;65.82
8641;BME280;4358;42.100;25.222;2023-09-19T09:35:47;100290.75;;;27.78;65.44
8641;BME280;4358;42.100;25.222;2023-09-19T09:38:19;100284.09;;;27.94;64.50
8641;BME280;4358;42.100;25.222;2023-09-19T09:40:47;100269.41;;;27.95;64.60
8641;BME280;4358;42.100;25.222;2023-09-19T09:43:31;100280.31;;;27.95;63.38
8641;BME280;4358;42.100;25.222;2023-09-19T09:46:10;100272.13;;;27.95;62.42
8641;BME280;4358;42.100;25.222;2023-09-19T09:49:05;100268.34;;;27.89;62.63
8641;BME280;4358;42.100;25.222;2023-09-19T09:51:42;100266.22;;;27.37;63.27
8641;BME280;4358;42.100;25.222;2023-09-19T09:54:15;100263.69;;;27.35;63.01
8641;BME280;4358;42.100;25.222;2023-09-19T09:56:55;100262.34;;;27.53;61.65
8641;BME280;4358;42.100;25.222;2023-09-19T09:59:46;100260.31;;;27.68;59.33
8641;BME280;4358;42.100;25.222;2023-09-19T10:02:19;100255.63;;;27.55;59.51
8641;BME280;4358;42.100;25.222;2023-09-19T10:04:51;100247.81;;;27.46;59.66
8641;BME280;4358;42.100;25.222;2023-09-19T10:07:33;100240.59;;;27.25;61.32
8641;BME280;4358;42.100;25.222;2023-09-19T10:10:03;100198.88;;;26.55;62.14
8641;BME280;4358;42.100;25.222;2023-09-19T10:12:44;100241.34;;;26.78;62.30
8641;BME280;4358;42.100;25.222;2023-09-19T10:15:14;100243.84;;;27.07;62.52
8641;BME280;4358;42.100;25.222;2023-09-19T10:17:43;100241.94;;;27.49;60.91
8641;BME280;4358;42.100;25.222;2023-09-19T10:20:16;100242.88;;;27.62;59.43
8641;BME280;4358;42.100;25.222;2023-09-19T10:22:50;100243.34;;;27.86;59.20
8641;BME280;4358;42.100;25.222;2023-09-19T10:25:26;100236.19;;;27.85;57.88
8641;BME280;4358;42.100;25.222;2023-09-19T10:27:56;100229.56;;;27.46;59.95
8641;BME280;4358;42.100;25.222;2023-09-19T10:30:25;100234.09;;;27.73;58.21
8641;BME280;4358;42.100;25.222;2023-09-19T10:32:57;100223.56;;;27.57;56.42
8641;BME280;4358;42.100;25.222;2023-09-19T10:35:26;100226.38;;;27.42;57.25
8641;BME280;4358;42.100;25.222;2023-09-19T10:37:55;100222.41;;;27.38;58.70
8641;BME280;4358;42.100;25.222;2023-09-19T10:40:26;100217.97;;;27.37;60.03
8641;BME280;4358;42.100;25.222;2023-09-19T10:43:00;100216.44;;;27.63;59.01
8641;BME280;4358;42.100;25.222;2023-09-19T10:45:28;100216.28;;;27.91;58.27
8641;BME280;4358;42.100;25.222;2023-09-19T10:47:57;100203.94;;;27.95;55.90
8641;BME280;4358;42.100;25.222;2023-09-19T10:50:24;100193.25;;;28.00;55.29
8641;BME280;4358;42.100;25.222;2023-09-19T10:52:53;100193.03;;;28.08;55.13
8641;BME280;4358;42.100;25.222;2023-09-19T10:55:28;100193.47;;;28.38;54.98
8641;BME280;4358;42.100;25.222;2023-09-19T10:57:55;100190.50;;;28.65;54.17
8641;BME280;4358;42.100;25.222;2023-09-19T11:00:52;100196.38;;;28.89;53.04
8641;BME280;4358;42.100;25.222;2023-09-19T11:03:21;100183.31;;;28.97;52.51
8641;BME280;4358;42.100;25.222;2023-09-19T11:06:06;100185.84;;;28.99;51.06
8641;BME280;4358;42.100;25.222;2023-09-19T11:09:05;100172.66;;;29.27;49.54
8641;BME280;4358;42.100;25.222;2023-09-19T11:11:53;100170.19;;;29.19;50.26
8641;BME280;4358;42.100;25.222;2023-09-19T11:14:30;100173.16;;;29.11;50.01
8641;BME280;4358;42.100;25.222;2023-09-19T11:17:31;100165.88;;;29.43;48.74
8641;BME280;4358;42.100;25.222;2023-09-19T11:20:23;100163.69;;;29.58;48.78
8641;BME280;4358;42.100;25.222;2023-09-19T11:23:22;100158.66;;;29.62;48.88
8641;BME280;4358;42.100;25.222;2023-09-19T11:25:49;100153.19;;;29.62;48.00
8641;BME280;4358;42.100;25.222;2023-09-19T11:28:29;100146.38;;;29.71;48.15
8641;BME280;4358;42.100;25.222;2023-09-19T11:30:57;100142.50;;;29.47;48.26
8641;BME280;4358;42.100;25.222;2023-09-19T11:33:25;100137.31;;;29.39;48.34
8641;BME280;4358;42.100;25.222;2023-09-19T11:36:03;100137.03;;;29.09;48.56
8641;BME280;4358;42.100;25.222;2023-09-19T11:38:57;100133.19;;;29.17;48.77
8641;BME280;4358;42.100;25.222;2023-09-19T11:41:39;100126.19;;;28.83;47.93
8641;BME280;4358;42.100;25.222;2023-09-19T11:44:33;100123.28;;;28.58;49.28
8641;BME280;4358;42.100;25.222;2023-09-19T11:47:02;100122.69;;;28.43;49.34
8641;BME280;4358;42.100;25.222;2023-09-19T11:49:30;100116.81;;;28.39;49.59
8641;BME280;4358;42.100;25.222;2023-09-19T11:51:59;100118.53;;;28.27;48.96
8641;BME280;4358;42.100;25.222;2023-09-19T11:54:30;100105.09;;;28.12;48.97
8641;BME280;4358;42.100;25.222;2023-09-19T11:56:58;100105.72;;;28.01;48.47
8641;BME280;4358;42.100;25.222;2023-09-19T11:59:27;100106.56;;;28.02;47.39
8641;BME280;4358;42.100;25.222;2023-09-19T12:01:57;100095.22;;;27.92;48.07
8641;BME280;4358;42.100;25.222;2023-09-19T12:04:34;100109.09;;;28.16;46.64
8641;BME280;4358;42.100;25.222;2023-09-19T12:07:04;100103.81;;;28.41;46.58
8641;BME280;4358;42.100;25.222;2023-09-19T12:09:32;100102.47;;;28.63;46.41
8641;BME280;4358;42.100;25.222;2023-09-19T12:11:59;100093.88;;;28.60;46.03
8641;BME280;4358;42.100;25.222;2023-09-19T12:14:26;100089.22;;;28.74;46.67
8641;BME280;4358;42.100;25.222;2023-09-19T12:16:55;100086.28;;;28.75;46.04
8641;BME280;4358;42.100;25.222;2023-09-19T12:19:26;100085.91;;;28.58;46.41
8641;BME280;4358;42.100;25.222;2023-09-19T12:21:55;100091.22;;;28.40;47.19
8641;BME280;4358;42.100;25.222;2023-09-19T12:24:24;100079.91;;;28.17;47.52
8641;BME280;4358;42.100;25.222;2023-09-19T12:26:52;100082.22;;;28.13;48.06
8641;BME280;4358;42.100;25.222;2023-09-19T12:29:20;100072.97;;;28.28;47.22
8641;BME280;4358;42.100;25.222;2023-09-19T12:31:48;100066.66;;;28.40;47.09
8641;BME280;4358;42.100;25.222;2023-09-19T12:34:21;100066.19;;;28.50;46.44
8641;BME280;4358;42.100;25.222;2023-09-19T12:36:49;100060.06;;;28.68;45.75
8641;BME280;4358;42.100;25.222;2023-09-19T12:39:23;100062.69;;;28.94;45.79
8641;BME280;4358;42.100;25.222;2023-09-19T12:41:52;100057.31;;;29.12;44.60
8641;BME280;4358;42.100;25.222;2023-09-19T12:44:19;100056.63;;;29.23;44.55
8641;BME280;4358;42.100;25.222;2023-09-19T12:46:46;100054.63;;;29.43;45.26
8641;BME280;4358;42.100;25.222;2023-09-19T12:49:17;100054.09;;;29.60;44.25
8641;BME280;4358;42.100;25.222;2023-09-19T12:51:46;100044.78;;;29.67;42.67
8641;BME280;4358;42.100;25.222;2023-09-19T12:54:16;100048.34;;;29.68;43.15
8641;BME280;4358;42.100;25.222;2023-09-19T12:56:44;100042.53;;;29.58;42.99
8641;BME280;4358;42.100;25.222;2023-09-19T12:59:14;100055.13;;;29.27;43.61
8641;BME280;4358;42.100;25.222;2023-09-19T13:01:42;100044.53;;;29.06;44.26
8641;BME280;4358;42.100;25.222;2023-09-19T13:04:16;100040.59;;;28.95;45.10
8641;BME280;4358;42.100;25.222;2023-09-19T13:06:48;100036.97;;;29.08;44.61
8641;BME280;4358;42.100;25.222;2023-09-19T13:09:15;100035.47;;;29.12;44.73